sensor_id;sensor_type;location;lat;lon;timestamp;temperature;humidity
25945;SHT31;13742;49.306;8.636;2023-05-10T00:00:06;15.33;89.23
25945;SHT31;13742;49.306;8.636;2023-05-10T00:01:05;15.23;89.42
25945;SHT31;13742;49.306;8.636;2023-05-10T00:02:05;15.13;89.57
25945;SHT31;13742;49.306;8.636;2023-05-10T00:03:05;15.16;89.88
25945;SHT31;13742;49.306;8.636;2023-05-10T00:04:05;15.17;89.58
25945;SHT31;13742;49.306;8.636;2023-05-10T00:05:05;15.19;89.44
25945;SHT31;13742;49.306;8.636;2023-05-10T00:06:05;15.21;89.87
25945;SHT31;13742;49.306;8.636;2023-05-10T00:07:05;15.23;89.75
25945;SHT31;13742;49.306;8.636;2023-05-10T00:08:05;15.21;89.47
25945;SHT31;13742;49.306;8.636;2023-05-10T00:09:05;15.21;89.56
25945;SHT31;13742;49.306;8.636;2023-05-10T00:10:05;15.21;89.46
25945;SHT31;13742;49.306;8.636;2023-05-10T00:11:05;15.19;89.65
25945;SHT31;13742;49.306;8.636;2023-05-10T00:12:05;15.17;89.42
25945;SHT31;13742;49.306;8.636;2023-05-10T00:13:05;15.16;89.71
25945;SHT31;13742;49.306;8.636;2023-05-10T00:14:05;15.17;89.74
25945;SHT31;13742;49.306;8.636;2023-05-10T00:15:06;15.14;89.52
25945;SHT31;13742;49.306;8.636;2023-05-10T00:16:05;15.17;90.07
25945;SHT31;13742;49.306;8.636;2023-05-10T00:17:05;15.17;89.96
25945;SHT31;13742;49.306;8.636;2023-05-10T00:18:05;15.19;89.63
25945;SHT31;13742;49.306;8.636;2023-05-10T00:19:05;15.14;89.42
25945;SHT31;13742;49.306;8.636;2023-05-10T00:20:05;15.14;89.61
25945;SHT31;13742;49.306;8.636;2023-05-10T00:21:05;15.16;89.62
25945;SHT31;13742;49.306;8.636;2023-05-10T00:22:05;15.16;89.65
25945;SHT31;13742;49.306;8.636;2023-05-10T00:23:05;15.13;89.54
25945;SHT31;13742;49.306;8.636;2023-05-10T00:24:05;15.09;89.44
25945;SHT31;13742;49.306;8.636;2023-05-10T00:25:06;15.10;89.63
25945;SHT31;13742;49.306;8.636;2023-05-10T00:26:05;15.09;89.89
25945;SHT31;13742;49.306;8.636;2023-05-10T00:27:05;15.07;89.62
25945;SHT31;13742;49.306;8.636;2023-05-10T00:28:05;15.10;89.52
25945;SHT31;13742;49.306;8.636;2023-05-10T00:29:05;15.09;89.56
25945;SHT31;13742;49.306;8.636;2023-05-10T00:30:06;15.09;89.46
25945;SHT31;13742;49.306;8.636;2023-05-10T00:31:05;15.09;89.86
25945;SHT31;13742;49.306;8.636;2023-05-10T00:32:05;15.07;89.71
25945;SHT31;13742;49.306;8.636;2023-05-10T00:33:05;15.10;90.12
25945;SHT31;13742;49.306;8.636;2023-05-10T00:34:05;15.07;89.51
25945;SHT31;13742;49.306;8.636;2023-05-10T00:35:05;15.06;89.58
25945;SHT31;13742;49.306;8.636;2023-05-10T00:36:07;15.03;89.55
25945;SHT31;13742;49.306;8.636;2023-05-10T00:37:05;15.03;89.56
25945;SHT31;13742;49.306;8.636;2023-05-10T00:38:05;15.06;89.73
25945;SHT31;13742;49.306;8.636;2023-05-10T00:39:05;14.99;89.59
25945;SHT31;13742;49.306;8.636;2023-05-10T00:40:06;15.03;89.92
25945;SHT31;13742;49.306;8.636;2023-05-10T00:41:05;15.03;89.61
25945;SHT31;13742;49.306;8.636;2023-05-10T00:42:05;15.02;89.64
25945;SHT31;13742;49.306;8.636;2023-05-10T00:43:05;14.96;90.00
25945;SHT31;13742;49.306;8.636;2023-05-10T00:44:05;14.96;89.69
25945;SHT31;13742;49.306;8.636;2023-05-10T00:45:06;14.99;89.79
25945;SHT31;13742;49.306;8.636;2023-05-10T00:46:05;14.96;89.96
25945;SHT31;13742;49.306;8.636;2023-05-10T00:47:05;14.98;89.83
25945;SHT31;13742;49.306;8.636;2023-05-10T00:48:05;14.98;90.58
25945;SHT31;13742;49.306;8.636;2023-05-10T00:49:05;14.99;90.07
25945;SHT31;13742;49.306;8.636;2023-05-10T00:50:06;14.96;89.96
25945;SHT31;13742;49.306;8.636;2023-05-10T00:51:05;14.99;90.17
25945;SHT31;13742;49.306;8.636;2023-05-10T00:52:05;14.99;90.72
25945;SHT31;13742;49.306;8.636;2023-05-10T00:53:05;14.98;90.41
25945;SHT31;13742;49.306;8.636;2023-05-10T00:54:05;14.99;90.38
25945;SHT31;13742;49.306;8.636;2023-05-10T00:55:06;14.98;90.46
25945;SHT31;13742;49.306;8.636;2023-05-10T00:56:05;14.96;90.47
25945;SHT31;13742;49.306;8.636;2023-05-10T00:57:05;14.99;90.23
25945;SHT31;13742;49.306;8.636;2023-05-10T00:58:05;14.99;90.35
25945;SHT31;13742;49.306;8.636;2023-05-10T00:59:05;14.98;90.39
25945;SHT31;13742;49.306;8.636;2023-05-10T01:00:06;14.98;90.53
25945;SHT31;13742;49.306;8.636;2023-05-10T01:01:05;14.98;90.59
25945;SHT31;13742;49.306;8.636;2023-05-10T01:02:06;14.96;90.58
25945;SHT31;13742;49.306;8.636;2023-05-10T01:03:05;14.96;90.32
25945;SHT31;13742;49.306;8.636;2023-05-10T01:04:05;14.93;90.08
25945;SHT31;13742;49.306;8.636;2023-05-10T01:05:05;14.92;90.16
25945;SHT31;13742;49.306;8.636;2023-05-10T01:06:05;14.92;90.03
25945;SHT31;13742;49.306;8.636;2023-05-10T01:07:05;14.92;90.59
25945;SHT31;13742;49.306;8.636;2023-05-10T01:08:05;14.88;90.07
25945;SHT31;13742;49.306;8.636;2023-05-10T01:09:06;14.85;90.04
25945;SHT31;13742;49.306;8.636;2023-05-10T01:10:06;14.86;90.12
25945;SHT31;13742;49.306;8.636;2023-05-10T01:11:05;14.88;90.38
25945;SHT31;13742;49.306;8.636;2023-05-10T01:12:07;14.90;90.30
25945;SHT31;13742;49.306;8.636;2023-05-10T01:13:05;14.90;90.34
25945;SHT31;13742;49.306;8.636;2023-05-10T01:14:06;14.82;89.46
25945;SHT31;13742;49.306;8.636;2023-05-10T01:15:06;14.82;89.77
25945;SHT31;13742;49.306;8.636;2023-05-10T01:16:06;14.79;89.66
25945;SHT31;13742;49.306;8.636;2023-05-10T01:17:05;14.79;89.62
25945;SHT31;13742;49.306;8.636;2023-05-10T01:18:05;14.79;89.80
25945;SHT31;13742;49.306;8.636;2023-05-10T01:19:11;14.76;89.79
25945;SHT31;13742;49.306;8.636;2023-05-10T01:20:07;14.79;89.93
25945;SHT31;13742;49.306;8.636;2023-05-10T01:21:15;14.76;90.06
25945;SHT31;13742;49.306;8.636;2023-05-10T01:24:18;14.69;89.43
25945;SHT31;13742;49.306;8.636;2023-05-10T01:26:19;14.67;89.47
25945;SHT31;13742;49.306;8.636;2023-05-10T01:27:19;14.65;89.29
25945;SHT31;13742;49.306;8.636;2023-05-10T01:28:16;14.64;89.41
25945;SHT31;13742;49.306;8.636;2023-05-10T01:31:21;14.71;89.70
25945;SHT31;13742;49.306;8.636;2023-05-10T01:32:20;14.67;89.55
25945;SHT31;13742;49.306;8.636;2023-05-10T01:33:19;14.67;89.30
25945;SHT31;13742;49.306;8.636;2023-05-10T01:34:16;14.65;89.39
25945;SHT31;13742;49.306;8.636;2023-05-10T01:35:26;14.67;89.20
25945;SHT31;13742;49.306;8.636;2023-05-10T01:36:19;14.62;89.24
25945;SHT31;13742;49.306;8.636;2023-05-10T01:37:09;14.61;89.36
25945;SHT31;13742;49.306;8.636;2023-05-10T01:39:12;14.62;89.51
25945;SHT31;13742;49.306;8.636;2023-05-10T01:40:17;14.64;89.41
25945;SHT31;13742;49.306;8.636;2023-05-10T01:41:14;14.61;89.66
25945;SHT31;13742;49.306;8.636;2023-05-10T01:42:10;14.61;89.38
25945;SHT31;13742;49.306;8.636;2023-05-10T01:43:08;14.62;89.39
25945;SHT31;13742;49.306;8.636;2023-05-10T01:46:16;14.59;89.46
25945;SHT31;13742;49.306;8.636;2023-05-10T01:47:18;14.61;90.03
25945;SHT31;13742;49.306;8.636;2023-05-10T01:48:09;14.59;89.60
25945;SHT31;13742;49.306;8.636;2023-05-10T01:49:09;14.62;89.68
25945;SHT31;13742;49.306;8.636;2023-05-10T01:50:10;14.61;89.38
25945;SHT31;13742;49.306;8.636;2023-05-10T01:51:06;14.58;89.52
25945;SHT31;13742;49.306;8.636;2023-05-10T01:52:16;14.59;89.49
25945;SHT31;13742;49.306;8.636;2023-05-10T01:53:09;14.58;89.50
25945;SHT31;13742;49.306;8.636;2023-05-10T01:54:05;14.59;89.45
25945;SHT31;13742;49.306;8.636;2023-05-10T01:55:09;14.57;89.28
25945;SHT31;13742;49.306;8.636;2023-05-10T01:56:07;14.59;89.44
25945;SHT31;13742;49.306;8.636;2023-05-10T01:57:06;14.62;89.55
25945;SHT31;13742;49.306;8.636;2023-05-10T01:58:11;14.58;89.72
25945;SHT31;13742;49.306;8.636;2023-05-10T01:59:09;14.61;89.74
25945;SHT31;13742;49.306;8.636;2023-05-10T02:00:09;14.64;89.74
25945;SHT31;13742;49.306;8.636;2023-05-10T02:01:06;14.61;89.54
25945;SHT31;13742;49.306;8.636;2023-05-10T02:02:05;14.59;89.49
25945;SHT31;13742;49.306;8.636;2023-05-10T02:03:07;14.59;89.42
25945;SHT31;13742;49.306;8.636;2023-05-10T02:04:07;14.57;89.29
25945;SHT31;13742;49.306;8.636;2023-05-10T02:05:06;14.57;89.28
25945;SHT31;13742;49.306;8.636;2023-05-10T02:06:05;14.58;89.42
25945;SHT31;13742;49.306;8.636;2023-05-10T02:07:06;14.58;89.43
25945;SHT31;13742;49.306;8.636;2023-05-10T02:08:06;14.57;89.57
25945;SHT31;13742;49.306;8.636;2023-05-10T02:09:05;14.58;89.47
25945;SHT31;13742;49.306;8.636;2023-05-10T02:10:06;14.55;89.28
25945;SHT31;13742;49.306;8.636;2023-05-10T02:11:05;14.54;89.11
25945;SHT31;13742;49.306;8.636;2023-05-10T02:12:06;14.54;89.11
25945;SHT31;13742;49.306;8.636;2023-05-10T02:13:07;14.52;89.45
25945;SHT31;13742;49.306;8.636;2023-05-10T02:14:07;14.57;89.47
25945;SHT31;13742;49.306;8.636;2023-05-10T02:15:07;14.52;89.28
25945;SHT31;13742;49.306;8.636;2023-05-10T02:16:06;14.52;89.40
25945;SHT31;13742;49.306;8.636;2023-05-10T02:17:05;14.52;89.49
25945;SHT31;13742;49.306;8.636;2023-05-10T02:18:06;14.54;89.95
25945;SHT31;13742;49.306;8.636;2023-05-10T02:19:06;14.55;89.55
25945;SHT31;13742;49.306;8.636;2023-05-10T02:20:07;14.54;89.45
25945;SHT31;13742;49.306;8.636;2023-05-10T02:21:05;14.57;89.54
25945;SHT31;13742;49.306;8.636;2023-05-10T02:22:05;14.54;89.49
25945;SHT31;13742;49.306;8.636;2023-05-10T02:23:05;14.54;89.70
25945;SHT31;13742;49.306;8.636;2023-05-10T02:24:06;14.51;89.57
25945;SHT31;13742;49.306;8.636;2023-05-10T02:25:06;14.55;89.49
25945;SHT31;13742;49.306;8.636;2023-05-10T02:26:06;14.52;89.43
25945;SHT31;13742;49.306;8.636;2023-05-10T02:27:06;14.52;89.33
25945;SHT31;13742;49.306;8.636;2023-05-10T02:28:06;14.50;89.35
25945;SHT31;13742;49.306;8.636;2023-05-10T02:29:05;14.51;89.29
25945;SHT31;13742;49.306;8.636;2023-05-10T02:30:06;14.54;89.36
25945;SHT31;13742;49.306;8.636;2023-05-10T02:31:05;14.54;89.32
25945;SHT31;13742;49.306;8.636;2023-05-10T02:32:05;14.54;89.73
25945;SHT31;13742;49.306;8.636;2023-05-10T02:33:05;14.54;89.59
25945;SHT31;13742;49.306;8.636;2023-05-10T02:34:07;14.52;89.50
25945;SHT31;13742;49.306;8.636;2023-05-10T02:35:05;14.55;89.63
25945;SHT31;13742;49.306;8.636;2023-05-10T02:36:07;14.54;89.36
25945;SHT31;13742;49.306;8.636;2023-05-10T02:37:06;14.52;89.45
25945;SHT31;13742;49.306;8.636;2023-05-10T02:38:06;14.45;89.78
25945;SHT31;13742;49.306;8.636;2023-05-10T02:39:09;14.41;89.95
25945;SHT31;13742;49.306;8.636;2023-05-10T02:40:06;14.44;89.64
25945;SHT31;13742;49.306;8.636;2023-05-10T02:41:05;14.44;89.88
25945;SHT31;13742;49.306;8.636;2023-05-10T02:42:05;14.44;89.78
25945;SHT31;13742;49.306;8.636;2023-05-10T02:43:06;14.45;90.21
25945;SHT31;13742;49.306;8.636;2023-05-10T02:44:06;14.47;90.18
25945;SHT31;13742;49.306;8.636;2023-05-10T02:45:11;14.48;90.28
25945;SHT31;13742;49.306;8.636;2023-05-10T02:46:05;14.48;89.98
25945;SHT31;13742;49.306;8.636;2023-05-10T02:47:05;14.48;90.40
25945;SHT31;13742;49.306;8.636;2023-05-10T02:48:05;14.50;90.31
25945;SHT31;13742;49.306;8.636;2023-05-10T02:49:05;14.51;90.50
25945;SHT31;13742;49.306;8.636;2023-05-10T02:50:06;14.50;90.33
25945;SHT31;13742;49.306;8.636;2023-05-10T02:51:07;14.50;90.06
25945;SHT31;13742;49.306;8.636;2023-05-10T02:52:06;14.48;90.40
25945;SHT31;13742;49.306;8.636;2023-05-10T02:53:10;14.50;90.17
25945;SHT31;13742;49.306;8.636;2023-05-10T02:54:12;14.48;90.36
25945;SHT31;13742;49.306;8.636;2023-05-10T02:55:05;14.48;90.23
25945;SHT31;13742;49.306;8.636;2023-05-10T02:56:25;14.48;89.95
25945;SHT31;13742;49.306;8.636;2023-05-10T02:57:05;14.45;89.98
25945;SHT31;13742;49.306;8.636;2023-05-10T02:58:05;14.47;90.26
25945;SHT31;13742;49.306;8.636;2023-05-10T02:59:05;14.48;90.13
25945;SHT31;13742;49.306;8.636;2023-05-10T03:00:06;14.48;90.31
25945;SHT31;13742;49.306;8.636;2023-05-10T03:01:05;14.48;90.30
25945;SHT31;13742;49.306;8.636;2023-05-10T03:02:05;14.45;90.06
25945;SHT31;13742;49.306;8.636;2023-05-10T03:03:05;14.41;90.09
25945;SHT31;13742;49.306;8.636;2023-05-10T03:04:05;14.41;90.20
25945;SHT31;13742;49.306;8.636;2023-05-10T03:05:05;14.41;90.37
25945;SHT31;13742;49.306;8.636;2023-05-10T03:06:05;14.42;90.17
25945;SHT31;13742;49.306;8.636;2023-05-10T03:07:05;14.41;90.08
25945;SHT31;13742;49.306;8.636;2023-05-10T03:08:06;14.44;90.28
25945;SHT31;13742;49.306;8.636;2023-05-10T03:09:05;14.41;90.21
25945;SHT31;13742;49.306;8.636;2023-05-10T03:10:06;14.41;90.47
25945;SHT31;13742;49.306;8.636;2023-05-10T03:13:14;14.40;90.51
25945;SHT31;13742;49.306;8.636;2023-05-10T03:15:19;14.42;90.46
25945;SHT31;13742;49.306;8.636;2023-05-10T03:16:12;14.44;90.70
25945;SHT31;13742;49.306;8.636;2023-05-10T03:17:11;14.40;90.30
25945;SHT31;13742;49.306;8.636;2023-05-10T03:18:09;14.42;90.24
25945;SHT31;13742;49.306;8.636;2023-05-10T03:19:56;14.40;90.32
25945;SHT31;13742;49.306;8.636;2023-05-10T03:20:21;14.40;90.22
25945;SHT31;13742;49.306;8.636;2023-05-10T03:21:11;14.34;90.17
25945;SHT31;13742;49.306;8.636;2023-05-10T03:22:08;14.34;90.19
25945;SHT31;13742;49.306;8.636;2023-05-10T03:23:13;14.35;90.26
25945;SHT31;13742;49.306;8.636;2023-05-10T03:24:07;14.35;90.16
25945;SHT31;13742;49.306;8.636;2023-05-10T03:25:07;14.37;90.27
25945;SHT31;13742;49.306;8.636;2023-05-10T03:26:05;14.35;90.39
25945;SHT31;13742;49.306;8.636;2023-05-10T03:27:05;14.34;90.68
25945;SHT31;13742;49.306;8.636;2023-05-10T03:28:05;14.32;90.27
25945;SHT31;13742;49.306;8.636;2023-05-10T03:29:06;14.32;90.31
25945;SHT31;13742;49.306;8.636;2023-05-10T03:30:07;14.31;90.22
25945;SHT31;13742;49.306;8.636;2023-05-10T03:31:05;14.27;90.31
25945;SHT31;13742;49.306;8.636;2023-05-10T03:32:05;14.25;90.46
25945;SHT31;13742;49.306;8.636;2023-05-10T03:33:05;14.25;90.73
25945;SHT31;13742;49.306;8.636;2023-05-10T03:34:05;14.25;90.57
25945;SHT31;13742;49.306;8.636;2023-05-10T03:35:08;14.30;90.89
25945;SHT31;13742;49.306;8.636;2023-05-10T03:36:05;14.24;90.46
25945;SHT31;13742;49.306;8.636;2023-05-10T03:37:05;14.24;90.78
25945;SHT31;13742;49.306;8.636;2023-05-10T03:38:05;14.25;91.04
25945;SHT31;13742;49.306;8.636;2023-05-10T03:39:05;14.25;90.69
25945;SHT31;13742;49.306;8.636;2023-05-10T03:40:05;14.23;90.74
25945;SHT31;13742;49.306;8.636;2023-05-10T03:41:05;14.24;90.91
25945;SHT31;13742;49.306;8.636;2023-05-10T03:42:05;14.25;90.69
25945;SHT31;13742;49.306;8.636;2023-05-10T03:43:05;14.25;90.83
25945;SHT31;13742;49.306;8.636;2023-05-10T03:44:05;14.27;90.83
25945;SHT31;13742;49.306;8.636;2023-05-10T03:45:05;14.27;91.07
25945;SHT31;13742;49.306;8.636;2023-05-10T03:46:05;14.27;91.03
25945;SHT31;13742;49.306;8.636;2023-05-10T03:47:05;14.25;90.98
25945;SHT31;13742;49.306;8.636;2023-05-10T03:48:05;14.27;90.70
25945;SHT31;13742;49.306;8.636;2023-05-10T03:49:05;14.27;90.79
25945;SHT31;13742;49.306;8.636;2023-05-10T03:50:05;14.25;90.92
25945;SHT31;13742;49.306;8.636;2023-05-10T03:51:05;14.27;91.06
25945;SHT31;13742;49.306;8.636;2023-05-10T03:52:05;14.27;91.22
25945;SHT31;13742;49.306;8.636;2023-05-10T03:53:05;14.25;90.89
25945;SHT31;13742;49.306;8.636;2023-05-10T03:54:05;14.27;90.75
25945;SHT31;13742;49.306;8.636;2023-05-10T03:55:05;14.25;90.89
25945;SHT31;13742;49.306;8.636;2023-05-10T03:56:05;14.24;90.61
25945;SHT31;13742;49.306;8.636;2023-05-10T03:57:05;14.24;90.69
25945;SHT31;13742;49.306;8.636;2023-05-10T03:58:05;14.24;90.63
25945;SHT31;13742;49.306;8.636;2023-05-10T03:59:07;14.23;90.63
25945;SHT31;13742;49.306;8.636;2023-05-10T04:00:06;14.23;90.70
25945;SHT31;13742;49.306;8.636;2023-05-10T04:01:05;14.23;90.62
25945;SHT31;13742;49.306;8.636;2023-05-10T04:02:05;14.23;91.00
25945;SHT31;13742;49.306;8.636;2023-05-10T04:03:05;14.23;90.89
25945;SHT31;13742;49.306;8.636;2023-05-10T04:04:05;14.20;90.55
25945;SHT31;13742;49.306;8.636;2023-05-10T04:05:05;14.17;90.37
25945;SHT31;13742;49.306;8.636;2023-05-10T04:06:05;14.19;90.55
25945;SHT31;13742;49.306;8.636;2023-05-10T04:07:05;14.16;90.48
25945;SHT31;13742;49.306;8.636;2023-05-10T04:08:05;14.16;90.57
25945;SHT31;13742;49.306;8.636;2023-05-10T04:09:05;14.17;90.54
25945;SHT31;13742;49.306;8.636;2023-05-10T04:10:05;14.17;90.63
25945;SHT31;13742;49.306;8.636;2023-05-10T04:11:07;14.17;90.62
25945;SHT31;13742;49.306;8.636;2023-05-10T04:12:05;14.13;90.41
25945;SHT31;13742;49.306;8.636;2023-05-10T04:13:05;14.11;90.57
25945;SHT31;13742;49.306;8.636;2023-05-10T04:14:05;14.14;90.84
25945;SHT31;13742;49.306;8.636;2023-05-10T04:15:05;14.13;90.62
25945;SHT31;13742;49.306;8.636;2023-05-10T04:16:05;14.11;90.66
25945;SHT31;13742;49.306;8.636;2023-05-10T04:17:05;14.11;90.57
25945;SHT31;13742;49.306;8.636;2023-05-10T04:18:05;14.10;90.55
25945;SHT31;13742;49.306;8.636;2023-05-10T04:19:05;14.10;90.75
25945;SHT31;13742;49.306;8.636;2023-05-10T04:20:05;14.11;90.54
25945;SHT31;13742;49.306;8.636;2023-05-10T04:21:11;14.10;90.69
25945;SHT31;13742;49.306;8.636;2023-05-10T04:22:05;14.09;90.54
25945;SHT31;13742;49.306;8.636;2023-05-10T04:23:05;14.10;90.82
25945;SHT31;13742;49.306;8.636;2023-05-10T04:24:05;14.10;90.79
25945;SHT31;13742;49.306;8.636;2023-05-10T04:25:05;14.09;90.73
25945;SHT31;13742;49.306;8.636;2023-05-10T04:26:05;14.07;90.91
25945;SHT31;13742;49.306;8.636;2023-05-10T04:27:05;14.07;90.75
25945;SHT31;13742;49.306;8.636;2023-05-10T04:28:05;14.07;90.79
25945;SHT31;13742;49.306;8.636;2023-05-10T04:29:05;14.09;90.80
25945;SHT31;13742;49.306;8.636;2023-05-10T04:30:06;14.07;90.98
25945;SHT31;13742;49.306;8.636;2023-05-10T04:31:06;14.09;90.89
25945;SHT31;13742;49.306;8.636;2023-05-10T04:32:05;14.09;90.78
25945;SHT31;13742;49.306;8.636;2023-05-10T04:33:05;14.06;90.90
25945;SHT31;13742;49.306;8.636;2023-05-10T04:34:05;14.07;90.79
25945;SHT31;13742;49.306;8.636;2023-05-10T04:35:05;14.09;91.19
25945;SHT31;13742;49.306;8.636;2023-05-10T04:36:05;14.07;90.95
25945;SHT31;13742;49.306;8.636;2023-05-10T04:37:05;14.06;91.14
25945;SHT31;13742;49.306;8.636;2023-05-10T04:38:05;14.07;91.12
25945;SHT31;13742;49.306;8.636;2023-05-10T04:39:04;14.09;91.02
25945;SHT31;13742;49.306;8.636;2023-05-10T04:40:06;14.09;90.98
25945;SHT31;13742;49.306;8.636;2023-05-10T04:41:09;14.09;90.86
25945;SHT31;13742;49.306;8.636;2023-05-10T04:42:05;14.09;90.89
25945;SHT31;13742;49.306;8.636;2023-05-10T04:43:04;14.09;90.96
25945;SHT31;13742;49.306;8.636;2023-05-10T04:44:05;14.07;91.12
25945;SHT31;13742;49.306;8.636;2023-05-10T04:45:05;14.09;90.95
25945;SHT31;13742;49.306;8.636;2023-05-10T04:46:05;14.10;91.12
25945;SHT31;13742;49.306;8.636;2023-05-10T04:47:05;14.10;91.05
25945;SHT31;13742;49.306;8.636;2023-05-10T04:48:05;14.13;91.26
25945;SHT31;13742;49.306;8.636;2023-05-10T04:49:05;14.13;91.19
25945;SHT31;13742;49.306;8.636;2023-05-10T04:50:06;14.14;91.20
25945;SHT31;13742;49.306;8.636;2023-05-10T04:51:06;14.13;90.92
25945;SHT31;13742;49.306;8.636;2023-05-10T04:52:05;14.16;91.46
25945;SHT31;13742;49.306;8.636;2023-05-10T04:53:05;14.14;91.06
25945;SHT31;13742;49.306;8.636;2023-05-10T04:54:05;14.14;91.06
25945;SHT31;13742;49.306;8.636;2023-05-10T04:55:05;14.14;91.10
25945;SHT31;13742;49.306;8.636;2023-05-10T04:56:05;14.14;91.05
25945;SHT31;13742;49.306;8.636;2023-05-10T04:57:04;14.11;91.01
25945;SHT31;13742;49.306;8.636;2023-05-10T04:58:04;14.11;91.06
25945;SHT31;13742;49.306;8.636;2023-05-10T04:59:05;14.14;91.09
25945;SHT31;13742;49.306;8.636;2023-05-10T05:00:05;14.11;91.01
25945;SHT31;13742;49.306;8.636;2023-05-10T05:01:07;14.11;90.97
25945;SHT31;13742;49.306;8.636;2023-05-10T05:02:04;14.11;90.85
25945;SHT31;13742;49.306;8.636;2023-05-10T05:03:05;14.10;90.88
25945;SHT31;13742;49.306;8.636;2023-05-10T05:04:05;14.10;90.88
25945;SHT31;13742;49.306;8.636;2023-05-10T05:05:05;14.10;90.84
25945;SHT31;13742;49.306;8.636;2023-05-10T05:06:05;14.10;90.75
25945;SHT31;13742;49.306;8.636;2023-05-10T05:07:05;14.10;90.86
25945;SHT31;13742;49.306;8.636;2023-05-10T05:08:04;14.10;91.12
25945;SHT31;13742;49.306;8.636;2023-05-10T05:09:04;14.14;91.08
25945;SHT31;13742;49.306;8.636;2023-05-10T05:10:08;14.11;91.09
25945;SHT31;13742;49.306;8.636;2023-05-10T05:11:05;14.16;91.19
25945;SHT31;13742;49.306;8.636;2023-05-10T05:12:05;14.16;91.41
25945;SHT31;13742;49.306;8.636;2023-05-10T05:13:05;14.16;91.18
25945;SHT31;13742;49.306;8.636;2023-05-10T05:14:04;14.14;91.06
25945;SHT31;13742;49.306;8.636;2023-05-10T05:15:05;14.16;90.91
25945;SHT31;13742;49.306;8.636;2023-05-10T05:16:05;14.16;90.91
25945;SHT31;13742;49.306;8.636;2023-05-10T05:17:04;14.17;90.95
25945;SHT31;13742;49.306;8.636;2023-05-10T05:18:04;14.17;90.87
25945;SHT31;13742;49.306;8.636;2023-05-10T05:19:05;14.16;90.82
25945;SHT31;13742;49.306;8.636;2023-05-10T05:20:05;14.16;90.77
25945;SHT31;13742;49.306;8.636;2023-05-10T05:21:13;14.14;90.66
25945;SHT31;13742;49.306;8.636;2023-05-10T05:22:06;14.13;90.86
25945;SHT31;13742;49.306;8.636;2023-05-10T05:23:05;14.11;90.88
25945;SHT31;13742;49.306;8.636;2023-05-10T05:24:05;14.11;90.88
25945;SHT31;13742;49.306;8.636;2023-05-10T05:25:05;14.13;90.83
25945;SHT31;13742;49.306;8.636;2023-05-10T05:26:04;14.14;91.11
25945;SHT31;13742;49.306;8.636;2023-05-10T05:27:05;14.17;91.10
25945;SHT31;13742;49.306;8.636;2023-05-10T05:28:04;14.19;91.06
25945;SHT31;13742;49.306;8.636;2023-05-10T05:29:04;14.20;91.10
25945;SHT31;13742;49.306;8.636;2023-05-10T05:30:08;14.20;90.97
25945;SHT31;13742;49.306;8.636;2023-05-10T05:31:06;14.21;91.02
25945;SHT31;13742;49.306;8.636;2023-05-10T05:32:05;14.20;91.14
25945;SHT31;13742;49.306;8.636;2023-05-10T05:33:05;14.23;91.12
25945;SHT31;13742;49.306;8.636;2023-05-10T05:34:05;14.23;91.42
25945;SHT31;13742;49.306;8.636;2023-05-10T05:35:05;14.25;91.27
25945;SHT31;13742;49.306;8.636;2023-05-10T05:36:05;14.25;90.88
25945;SHT31;13742;49.306;8.636;2023-05-10T05:37:04;14.28;91.03
25945;SHT31;13742;49.306;8.636;2023-05-10T05:38:05;14.27;90.86
25945;SHT31;13742;49.306;8.636;2023-05-10T05:39:04;14.27;90.77
25945;SHT31;13742;49.306;8.636;2023-05-10T05:40:05;14.23;90.42
25945;SHT31;13742;49.306;8.636;2023-05-10T05:41:04;14.24;90.50
25945;SHT31;13742;49.306;8.636;2023-05-10T05:42:05;14.24;90.53
25945;SHT31;13742;49.306;8.636;2023-05-10T05:43:04;14.23;90.54
25945;SHT31;13742;49.306;8.636;2023-05-10T05:44:04;14.21;90.68
25945;SHT31;13742;49.306;8.636;2023-05-10T05:45:06;14.24;90.79
25945;SHT31;13742;49.306;8.636;2023-05-10T05:46:05;14.25;90.62
25945;SHT31;13742;49.306;8.636;2023-05-10T05:47:05;14.27;90.51
25945;SHT31;13742;49.306;8.636;2023-05-10T05:48:05;14.25;90.60
25945;SHT31;13742;49.306;8.636;2023-05-10T05:49:04;14.28;90.57
25945;SHT31;13742;49.306;8.636;2023-05-10T05:50:05;14.31;90.55
25945;SHT31;13742;49.306;8.636;2023-05-10T05:51:05;14.31;90.77
25945;SHT31;13742;49.306;8.636;2023-05-10T05:52:04;14.32;90.76
25945;SHT31;13742;49.306;8.636;2023-05-10T05:53:04;14.32;90.67
25945;SHT31;13742;49.306;8.636;2023-05-10T05:54:05;14.32;90.63
25945;SHT31;13742;49.306;8.636;2023-05-10T05:55:05;14.32;90.75
25945;SHT31;13742;49.306;8.636;2023-05-10T05:56:05;14.31;90.62
25945;SHT31;13742;49.306;8.636;2023-05-10T05:57:05;14.34;90.71
25945;SHT31;13742;49.306;8.636;2023-05-10T05:58:04;14.32;90.61
25945;SHT31;13742;49.306;8.636;2023-05-10T05:59:04;14.35;90.80
25945;SHT31;13742;49.306;8.636;2023-05-10T06:00:05;14.34;90.72
25945;SHT31;13742;49.306;8.636;2023-05-10T06:01:04;14.37;90.78
25945;SHT31;13742;49.306;8.636;2023-05-10T06:02:04;14.35;90.73
25945;SHT31;13742;49.306;8.636;2023-05-10T06:03:04;14.37;90.84
25945;SHT31;13742;49.306;8.636;2023-05-10T06:04:04;14.38;90.83
25945;SHT31;13742;49.306;8.636;2023-05-10T06:05:05;14.37;90.77
25945;SHT31;13742;49.306;8.636;2023-05-10T06:06:05;14.40;90.71
25945;SHT31;13742;49.306;8.636;2023-05-10T06:07:05;14.38;90.67
25945;SHT31;13742;49.306;8.636;2023-05-10T06:08:04;14.38;90.81
25945;SHT31;13742;49.306;8.636;2023-05-10T06:09:05;14.40;90.93
25945;SHT31;13742;49.306;8.636;2023-05-10T06:10:06;14.41;90.82
25945;SHT31;13742;49.306;8.636;2023-05-10T06:11:04;14.40;90.83
25945;SHT31;13742;49.306;8.636;2023-05-10T06:12:05;14.41;90.72
25945;SHT31;13742;49.306;8.636;2023-05-10T06:13:04;14.44;90.77
25945;SHT31;13742;49.306;8.636;2023-05-10T06:14:06;14.40;90.66
25945;SHT31;13742;49.306;8.636;2023-05-10T06:15:05;14.40;90.59
25945;SHT31;13742;49.306;8.636;2023-05-10T06:16:05;14.41;90.60
25945;SHT31;13742;49.306;8.636;2023-05-10T06:17:05;14.41;90.61
25945;SHT31;13742;49.306;8.636;2023-05-10T06:18:05;14.40;90.66
25945;SHT31;13742;49.306;8.636;2023-05-10T06:19:04;14.40;90.62
25945;SHT31;13742;49.306;8.636;2023-05-10T06:20:06;14.41;90.60
25945;SHT31;13742;49.306;8.636;2023-05-10T06:21:05;14.41;90.77
25945;SHT31;13742;49.306;8.636;2023-05-10T06:22:05;14.42;90.57
25945;SHT31;13742;49.306;8.636;2023-05-10T06:23:04;14.45;90.75
25945;SHT31;13742;49.306;8.636;2023-05-10T06:24:05;14.44;90.65
25945;SHT31;13742;49.306;8.636;2023-05-10T06:25:05;14.44;90.55
25945;SHT31;13742;49.306;8.636;2023-05-10T06:26:04;14.45;90.69
25945;SHT31;13742;49.306;8.636;2023-05-10T06:27:05;14.44;90.67
25945;SHT31;13742;49.306;8.636;2023-05-10T06:28:04;14.42;90.60
25945;SHT31;13742;49.306;8.636;2023-05-10T06:29:05;14.45;90.68